Time;durP1;ratioP1;P1;durP2;ratioP2;P2;SDS_P1;SDS_P2;PMS_P1;PMS_P2;Temp;Humidity;BMP_temperature;BMP_pressure;BME280_temperature;BME280_humidity;BME280_pressure;Samples;Min_cycle;Max_cycle;Signal;HPM_P1;HPM_P2
2024/01/14 00:01:47;;;;;;;37.77;18.80;;;;;;;-1.26;65.32;96242.66;5075519;28;21010;-66
2024/01/14 00:04:13;;;;;;;39.43;21.60;;;;;;;-1.25;65.69;96228.94;5081972;28;20169;-65
2024/01/14 00:06:38;;;;;;;32.67;18.37;;;;;;;-1.35;66.15;96227.19;5083329;28;20958;-67
2024/01/14 00:09:04;;;;;;;40.83;21.27;;;;;;;-1.47;66.10;96222.06;5082884;28;20316;-66
2024/01/14 00:11:29;;;;;;;45.10;24.87;;;;;;;-1.39;66.24;96222.94;5080407;28;20249;-65
2024/01/14 00:13:55;;;;;;;38.33;20.70;;;;;;;-1.44;65.41;96215.22;5080109;28;20177;-67
2024/01/14 00:16:20;;;;;;;43.20;21.17;;;;;;;-1.42;65.41;96221.19;5079054;28;20205;-67
2024/01/14 00:18:45;;;;;;;34.83;18.50;;;;;;;-1.24;65.22;96214.34;5078876;28;20284;-66
2024/01/14 00:21:11;;;;;;;38.20;21.63;;;;;;;-1.32;65.30;96222.91;5079892;28;20178;-67
2024/01/14 00:23:36;;;;;;;32.63;18.87;;;;;;;-1.48;65.76;96220.34;5080702;28;20185;-67
2024/01/14 00:26:01;;;;;;;33.07;19.30;;;;;;;-1.43;65.42;96210.91;5085256;28;20767;-65
2024/01/14 00:28:27;;;;;;;39.17;19.40;;;;;;;-1.58;65.81;96199.78;5069354;28;20232;-66
2024/01/14 00:30:53;;;;;;;42.40;20.10;;;;;;;-1.72;67.34;96184.31;5071594;28;20657;-66
2024/01/14 00:33:18;;;;;;;33.27;18.80;;;;;;;-1.74;67.20;96185.19;5078917;28;20525;-66
2024/01/14 00:35:43;;;;;;;37.30;19.80;;;;;;;-1.63;66.77;96180.91;5082055;28;20178;-68
2024/01/14 00:38:09;;;;;;;41.23;21.07;;;;;;;-1.76;67.23;96166.31;5078158;28;20205;-67
2024/01/14 00:40:34;;;;;;;39.70;18.27;;;;;;;-1.75;66.62;96170.59;5075501;28;20256;-67
2024/01/14 00:43:00;;;;;;;39.00;19.30;;;;;;;-1.82;67.07;96179.16;5077927;28;20173;-65
2024/01/14 00:45:25;;;;;;;33.67;18.40;;;;;;;-1.68;66.95;96181.75;5072742;28;20776;-65
2024/01/14 00:47:51;;;;;;;35.63;17.50;;;;;;;-2.07;67.38;96163.72;5076345;28;20224;-65
2024/01/14 00:50:16;;;;;;;37.20;17.70;;;;;;;-1.80;67.07;96159.44;5080547;28;20261;-66
2024/01/14 00:52:41;;;;;;;40.00;18.23;;;;;;;-1.82;66.86;96161.16;5068273;28;20281;-66
2024/01/14 00:55:08;;;;;;;35.50;19.67;;;;;;;-1.72;66.63;96161.16;5080765;28;20181;-67
2024/01/14 00:57:34;;;;;;;37.97;19.80;;;;;;;-1.91;66.77;96154.31;5082810;28;20288;-67
2024/01/14 00:59:59;;;;;;;36.97;17.00;;;;;;;-1.77;66.24;96146.56;5076322;28;20508;-67
2024/01/14 01:02:25;;;;;;;27.87;16.37;;;;;;;-1.71;65.75;96146.59;5079389;28;20268;-65
2024/01/14 01:04:50;;;;;;;28.43;16.07;;;;;;;-1.85;66.54;96154.28;5076879;28;20184;-66
2024/01/14 01:07:15;;;;;;;42.63;20.60;;;;;;;-1.86;66.68;96149.16;5076097;28;20173;-66
2024/01/14 01:09:41;;;;;;;35.60;17.27;;;;;;;-1.93;66.26;96141.44;5081839;28;20228;-66
2024/01/14 01:12:07;;;;;;;30.50;17.37;;;;;;;-1.84;65.39;96144.84;5083283;28;20178;-65
2024/01/14 01:14:32;;;;;;;36.40;16.80;;;;;;;-1.91;65.60;96144.03;5082229;28;20265;-67
2024/01/14 01:16:57;;;;;;;37.97;20.33;;;;;;;-1.79;65.28;96153.47;5073822;28;20706;-65
2024/01/14 01:19:23;;;;;;;30.20;16.53;;;;;;;-1.80;65.48;96142.28;5079214;28;20193;-66
2024/01/14 01:21:48;;;;;;;38.43;17.40;;;;;;;-1.79;64.86;96136.31;5079848;28;20196;-66
2024/01/14 01:24:14;;;;;;;34.43;16.20;;;;;;;-1.68;64.57;96136.28;5076312;28;20933;-66
2024/01/14 01:26:40;;;;;;;32.93;16.47;;;;;;;-1.83;65.13;96126.88;5079732;28;20166;-66
2024/01/14 01:29:05;;;;;;;30.40;16.43;;;;;;;-1.90;65.61;96137.16;5080552;28;20448;-65
2024/01/14 01:31:31;;;;;;;35.47;16.70;;;;;;;-1.88;65.36;96123.44;5074339;28;20166;-66
2024/01/14 01:33:56;;;;;;;35.07;17.20;;;;;;;-1.84;64.87;96122.59;5069764;28;20193;-66
2024/01/14 01:36:22;;;;;;;31.70;17.60;;;;;;;-1.96;65.14;96120.88;5079989;28;20225;-66
2024/01/14 01:38:47;;;;;;;36.43;17.90;;;;;;;-2.00;65.27;96113.16;5080948;28;20216;-66
2024/01/14 01:41:13;;;;;;;39.17;18.50;;;;;;;-1.92;65.13;96102.00;5083841;28;20177;-66
2024/01/14 01:43:38;;;;;;;35.80;18.87;;;;;;;-1.84;65.25;96098.56;5082804;28;20435;-67
2024/01/14 01:46:06;;;;;;;32.63;16.03;;;;;;;-1.76;64.90;96102.00;5074807;28;20265;-66
2024/01/14 01:48:33;;;;;;;29.63;16.50;;;;;;;-1.87;65.06;96094.28;5081201;28;20220;-65
2024/01/14 01:51:00;;;;;;;42.67;19.37;;;;;;;-1.83;65.72;96085.72;5085339;28;20436;-67
2024/01/14 01:53:26;;;;;;;41.00;18.73;;;;;;;-1.76;65.39;96081.44;5085487;28;20234;-67
2024/01/14 01:55:53;;;;;;;33.33;16.53;;;;;;;-1.93;65.74;96079.72;5071766;28;20478;-66
2024/01/14 01:58:19;;;;;;;32.33;18.33;;;;;;;-2.02;65.91;96074.59;5079139;28;20517;-67
2024/01/14 02:00:45;;;;;;;39.37;18.80;;;;;;;-1.84;65.72;96070.28;5083672;28;20523;-68
2024/01/14 02:03:11;;;;;;;31.70;17.20;;;;;;;-1.92;66.31;96071.13;5081450;28;20451;-67
2024/01/14 02:05:41;;;;;;;39.07;16.80;;;;;;;-1.76;65.88;96068.56;5073229;28;20258;-67
2024/01/14 02:08:07;;;;;;;32.90;17.23;;;;;;;-1.86;66.34;96057.44;5080241;28;20533;-67
2024/01/14 02:10:32;;;;;;;42.87;19.70;;;;;;;-1.80;66.46;96059.13;5087014;28;21094;-66
2024/01/14 02:12:58;;;;;;;41.13;19.03;;;;;;;-1.79;66.11;96058.28;5088433;28;20335;-67
2024/01/14 02:15:23;;;;;;;41.23;19.80;;;;;;;-1.85;66.60;96058.28;5091772;28;20222;-67
2024/01/14 02:17:49;;;;;;;34.90;17.30;;;;;;;-1.57;65.79;96051.38;5089815;28;20200;-66
2024/01/14 02:20:15;;;;;;;39.57;20.23;;;;;;;-1.65;65.92;96042.81;5085747;28;20193;-66
2024/01/14 02:22:45;;;;;;;31.93;17.23;;;;;;;-1.64;66.26;96040.25;5089016;28;20256;-66
2024/01/14 02:25:11;;;;;;;40.33;19.67;;;;;;;-1.76;66.75;96040.28;5087285;28;20511;-66
2024/01/14 02:27:37;;;;;;;35.07;20.77;;;;;;;-1.63;66.22;96033.38;5081254;28;20436;-66
2024/01/14 02:30:04;;;;;;;35.93;21.97;;;;;;;-1.51;66.12;96030.78;5076047;28;20511;-67
2024/01/14 02:32:29;;;;;;;37.87;19.90;;;;;;;-1.44;65.77;96024.75;5077202;28;20564;-66
2024/01/14 02:34:54;;;;;;;34.27;18.63;;;;;;;-1.56;66.23;96017.94;5080587;28;20990;-68
2024/01/14 02:37:20;;;;;;;35.53;18.83;;;;;;;-1.39;66.07;96019.59;5081755;28;20671;-66
2024/01/14 02:39:46;;;;;;;36.33;19.50;;;;;;;-1.61;66.76;96013.66;5079378;28;20177;-68
2024/01/14 02:42:11;;;;;;;33.27;19.83;;;;;;;-1.60;66.89;96011.09;5068457;28;20185;-64
2024/01/14 02:44:36;;;;;;;38.83;20.80;;;;;;;-1.62;66.66;96010.22;5086959;28;20265;-67
2024/01/14 02:47:02;;;;;;;34.10;19.67;;;;;;;-1.74;67.29;96015.41;5083756;28;20178;-67
2024/01/14 02:49:27;;;;;;;34.70;18.43;;;;;;;-1.80;67.61;96008.53;5083053;28;20664;-66
2024/01/14 02:51:53;;;;;;;37.87;19.47;;;;;;;-1.73;67.46;96010.25;5073256;28;20283;-66
2024/01/14 02:54:18;;;;;;;31.67;18.40;;;;;;;-1.50;66.80;96009.34;5072201;28;21830;-67
2024/01/14 02:56:43;;;;;;;38.00;19.73;;;;;;;-1.57;66.85;96007.63;5077119;28;20569;-66
2024/01/14 02:59:09;;;;;;;34.53;19.90;;;;;;;-1.61;67.08;96009.34;5076619;28;20259;-67
2024/01/14 03:01:42;;;;;;;31.57;18.70;;;;;;;-1.75;67.41;96001.69;5079925;28;20891;-67
2024/01/14 03:04:07;;;;;;;30.30;18.50;;;;;;;-1.65;66.88;95987.09;5081456;28;20184;-66
2024/01/14 03:06:33;;;;;;;32.80;20.23;;;;;;;-1.59;67.11;95984.47;5073141;28;20890;-66
2024/01/14 03:08:58;;;;;;;35.17;19.77;;;;;;;-1.61;67.14;95975.91;5073393;28;20284;-66
2024/01/14 03:11:24;;;;;;;37.43;18.33;;;;;;;-1.67;67.18;95975.09;5075190;28;20181;-67
2024/01/14 03:13:49;;;;;;;35.37;20.63;;;;;;;-1.61;67.05;95978.47;5079378;28;20551;-66
2024/01/14 03:16:15;;;;;;;35.00;19.67;;;;;;;-1.58;67.21;95983.63;5071968;28;20189;-65
2024/01/14 03:18:40;;;;;;;39.50;20.80;;;;;;;-1.54;67.36;95969.88;5071112;28;20196;-66
2024/01/14 03:21:05;;;;;;;36.37;18.43;;;;;;;-1.55;67.02;95968.19;5080060;28;20192;-68
2024/01/14 03:23:31;;;;;;;37.20;22.13;;;;;;;-1.39;66.85;95981.84;5073806;28;20645;-66
2024/01/14 03:25:56;;;;;;;33.47;19.20;;;;;;;-1.39;66.30;95970.69;5076353;28;20190;-68
2024/01/14 03:28:21;;;;;;;33.07;17.50;;;;;;;-1.59;67.14;95974.19;5080613;28;20673;-66
2024/01/14 03:30:47;;;;;;;43.60;20.27;;;;;;;-1.35;66.41;95977.53;5076473;28;20611;-66
2024/01/14 03:33:12;;;;;;;35.60;18.13;;;;;;;-1.62;66.73;95974.22;5071799;28;20178;-66
2024/01/14 03:35:37;;;;;;;44.30;20.07;;;;;;;-1.52;66.60;95975.88;5071867;28;20263;-67
2024/01/14 03:38:03;;;;;;;42.67;20.13;;;;;;;-1.54;66.42;95985.31;5076961;28;20708;-67
2024/01/14 03:40:28;;;;;;;36.23;20.27;;;;;;;-1.51;66.16;95980.19;5073244;28;20265;-66
2024/01/14 03:42:53;;;;;;;37.97;19.00;;;;;;;-1.54;66.22;95984.47;5078960;28;20656;-66
2024/01/14 03:45:19;;;;;;;48.67;19.53;;;;;;;-1.57;66.35;95982.75;5085288;28;20193;-66
2024/01/14 03:47:44;;;;;;;34.03;18.63;;;;;;;-1.60;66.59;95990.50;5085408;28;20182;-66
2024/01/14 03:50:10;;;;;;;37.83;18.90;;;;;;;-1.65;66.55;95981.06;5076888;28;20684;-65
2024/01/14 03:52:35;;;;;;;33.63;17.63;;;;;;;-1.58;65.93;95975.91;5085759;28;20227;-66
2024/01/14 03:55:00;;;;;;;39.43;20.87;;;;;;;-1.37;65.43;95984.41;5084882;28;20571;-66
2024/01/14 03:57:26;;;;;;;37.03;19.60;;;;;;;-1.45;65.33;95983.59;5076992;28;20207;-66
2024/01/14 03:59:51;;;;;;;36.57;19.90;;;;;;;-1.66;66.05;95984.50;5083584;28;20180;-66
2024/01/14 04:02:16;;;;;;;34.97;19.97;;;;;;;-1.46;65.72;95979.28;5085239;28;20177;-67
2024/01/14 04:04:42;;;;;;;36.87;18.87;;;;;;;-1.54;65.78;95976.75;5085597;28;20552;-66
2024/01/14 04:07:08;;;;;;;30.43;18.00;;;;;;;-1.65;66.05;95975.91;5085430;28;20173;-65
2024/01/14 04:09:33;;;;;;;32.40;18.63;;;;;;;-1.69;66.04;95980.22;5084785;28;20197;-67
2024/01/14 04:11:59;;;;;;;38.60;19.43;;;;;;;-1.71;66.03;95985.38;5085172;28;20968;-67
2024/01/14 04:14:24;;;;;;;36.30;17.50;;;;;;;-1.66;66.30;95989.66;5085120;28;20208;-66
2024/01/14 04:16:49;;;;;;;35.00;15.47;;;;;;;-1.62;65.82;95993.94;5085357;28;20209;-65
2024/01/14 04:19:15;;;;;;;32.07;18.37;;;;;;;-1.62;65.93;95991.38;5085508;28;20198;-66
2024/01/14 04:21:40;;;;;;;36.07;20.63;;;;;;;-1.56;66.22;95993.91;5088349;28;20256;-66
2024/01/14 04:24:06;;;;;;;36.50;18.47;;;;;;;-1.51;65.28;95982.75;5089519;28;20178;-66
2024/01/14 04:26:31;;;;;;;34.67;18.07;;;;;;;-1.46;65.43;95982.72;5084348;28;20166;-66
2024/01/14 04:28:57;;;;;;;35.40;18.00;;;;;;;-1.64;65.73;95988.78;5085733;28;20684;-66
2024/01/14 04:31:22;;;;;;;30.70;16.83;;;;;;;-1.75;65.79;95991.41;5088957;28;20173;-66
2024/01/14 04:33:48;;;;;;;29.27;15.60;;;;;;;-1.82;66.40;95997.44;5088783;28;20236;-66
2024/01/14 04:36:17;;;;;;;32.60;17.80;;;;;;;-1.79;65.89;95978.56;5080457;28;20175;-65
2024/01/14 04:38:43;;;;;;;30.47;16.47;;;;;;;-1.80;65.73;95984.53;5083361;28;20205;-66
2024/01/14 04:41:09;;;;;;;35.67;17.40;;;;;;;-1.71;65.17;95989.66;5088651;28;20418;-66
2024/01/14 04:43:36;;;;;;;32.07;17.40;;;;;;;-1.57;64.97;95987.91;5074457;28;20196;-66
2024/01/14 04:46:01;;;;;;;32.87;17.27;;;;;;;-1.52;64.09;95985.31;5081431;28;20279;-67
2024/01/14 04:48:26;;;;;;;35.37;17.10;;;;;;;-1.75;64.61;95996.56;5084681;28;20529;-67
2024/01/14 04:50:52;;;;;;;37.90;17.00;;;;;;;-1.64;63.62;95990.50;5073771;28;20184;-66
2024/01/14 04:53:17;;;;;;;29.70;16.10;;;;;;;-1.71;64.17;96010.25;5075075;28;20181;-66
2024/01/14 04:55:43;;;;;;;31.53;17.20;;;;;;;-1.65;63.83;95999.06;5077508;28;20227;-67
2024/01/14 04:58:08;;;;;;;30.20;15.97;;;;;;;-1.74;63.80;95998.25;5082882;28;20198;-69
2024/01/14 05:00:33;;;;;;;32.17;16.73;;;;;;;-1.61;63.49;96004.22;5089433;28;20204;-66
2024/01/14 05:02:59;;;;;;;29.67;16.20;;;;;;;-1.81;63.36;96009.41;5082026;28;20253;-66
2024/01/14 05:05:24;;;;;;;27.47;16.23;;;;;;;-1.82;63.28;96004.25;5076196;28;20184;-66
2024/01/14 05:07:49;;;;;;;43.93;16.90;;;;;;;-2.07;63.51;96001.75;5095503;28;20211;-67
2024/01/14 05:10:15;;;;;;;36.43;17.87;;;;;;;-2.05;63.04;96005.19;5097113;28;20628;-66
2024/01/14 05:12:40;;;;;;;30.97;17.30;;;;;;;-2.10;62.55;96006.91;5096205;28;20190;-66
2024/01/14 05:15:06;;;;;;;32.27;17.20;;;;;;;-2.25;62.59;96015.44;5071840;28;20931;-66
2024/01/14 05:17:31;;;;;;;30.30;16.57;;;;;;;-2.10;61.82;96014.59;5073381;28;20206;-66
2024/01/14 05:19:57;;;;;;;30.23;18.17;;;;;;;-2.24;62.44;96006.91;5074136;28;20653;-67
2024/01/14 05:22:23;;;;;;;31.93;16.60;;;;;;;-2.46;63.24;96010.31;5076749;28;20328;-66
2024/01/14 05:24:50;;;;;;;38.70;19.00;;;;;;;-2.23;62.82;96010.31;5078040;28;20220;-66
2024/01/14 05:27:16;;;;;;;38.00;17.40;;;;;;;-2.31;62.84;96002.63;5080327;28;20940;-66
2024/01/14 05:29:45;;;;;;;31.60;16.27;;;;;;;-2.31;62.08;95999.19;5072023;28;20462;-66
2024/01/14 05:32:15;;;;;;;29.63;17.57;;;;;;;-2.57;62.72;96010.31;5083493;28;20192;-67
2024/01/14 05:34:44;;;;;;;34.17;19.53;;;;;;;-2.63;62.89;96015.44;5070809;28;20475;-66
2024/01/14 05:37:11;;;;;;;28.00;17.07;;;;;;;-2.29;61.89;96002.59;5083869;28;20468;-66
2024/01/14 05:39:36;;;;;;;34.47;18.40;;;;;;;-2.48;61.55;95997.50;5084140;28;20466;-67
2024/01/14 05:42:02;;;;;;;31.27;16.13;;;;;;;-2.57;62.20;96013.75;5069111;28;20444;-64
2024/01/14 05:44:27;;;;;;;38.93;17.83;;;;;;;-2.63;62.62;96003.44;5082234;28;20539;-66
2024/01/14 05:46:54;;;;;;;33.43;17.63;;;;;;;-2.67;63.72;96011.16;5077257;28;20656;-67
2024/01/14 05:49:19;;;;;;;36.67;19.00;;;;;;;-2.54;64.55;95999.19;5079045;28;20216;-66
2024/01/14 05:51:45;;;;;;;40.07;18.83;;;;;;;-2.60;64.05;96000.03;5077971;28;20975;-64
2024/01/14 05:54:10;;;;;;;34.97;18.17;;;;;;;-2.46;64.25;95989.75;5074822;28;20223;-66
2024/01/14 05:56:36;;;;;;;43.20;18.90;;;;;;;-2.49;64.35;95988.03;5068238;28;20572;-66
2024/01/14 05:59:01;;;;;;;34.70;18.60;;;;;;;-2.59;65.02;95999.19;5071531;28;20803;-67
2024/01/14 06:01:27;;;;;;;33.13;18.53;;;;;;;-2.30;64.00;96001.75;5076784;28;20560;-66
2024/01/14 06:03:53;;;;;;;42.03;19.60;;;;;;;-2.21;64.27;95988.91;5075923;28;20542;-66
2024/01/14 06:06:19;;;;;;;41.67;19.50;;;;;;;-2.43;64.53;96000.06;5076495;28;20512;-67
2024/01/14 06:08:44;;;;;;;34.40;17.50;;;;;;;-2.81;66.24;96001.72;5070081;28;20201;-67
2024/01/14 06:11:12;;;;;;;37.70;18.93;;;;;;;-2.59;65.49;96007.75;5074382;28;21006;-67
2024/01/14 06:13:37;;;;;;;32.20;18.40;;;;;;;-2.59;65.51;96005.19;5076378;28;21084;-65
2024/01/14 06:16:03;;;;;;;33.53;19.03;;;;;;;-2.35;65.51;96009.47;5088581;28;20522;-66
2024/01/14 06:18:28;;;;;;;35.77;20.20;;;;;;;-2.25;64.75;96004.31;5072500;28;20208;-65
2024/01/14 06:20:59;;;;;;;30.30;16.20;;;;;;;-2.34;65.40;96002.59;5069620;28;20588;-67
2024/01/14 06:23:25;;;;;;;40.77;19.47;;;;;;;-2.29;64.79;96005.16;5076648;28;20197;-66
2024/01/14 06:25:50;;;;;;;35.13;18.67;;;;;;;-2.05;64.58;95996.63;5078722;28;20956;-66
2024/01/14 06:28:16;;;;;;;34.97;20.00;;;;;;;-2.00;63.69;96005.16;5084593;28;20456;-65
2024/01/14 06:30:41;;;;;;;34.07;18.90;;;;;;;-2.37;64.36;96011.16;5082136;28;20250;-64
2024/01/14 06:33:07;;;;;;;36.00;18.37;;;;;;;-2.17;64.09;96011.19;5083666;28;20189;-66
2024/01/14 06:35:32;;;;;;;38.57;19.17;;;;;;;-2.10;63.68;96006.91;5080868;28;20260;-65
2024/01/14 06:37:57;;;;;;;37.13;19.30;;;;;;;-2.28;63.99;96012.03;5080128;28;20244;-67
2024/01/14 06:40:23;;;;;;;35.60;19.33;;;;;;;-2.05;63.60;96017.19;5079695;28;20220;-66
2024/01/14 06:42:48;;;;;;;38.10;20.60;;;;;;;-1.95;63.39;96008.59;5083724;28;20166;-66
2024/01/14 06:45:13;;;;;;;33.10;17.70;;;;;;;-2.11;62.77;96010.31;5068490;28;20185;-67
2024/01/14 06:47:40;;;;;;;35.00;20.30;;;;;;;-1.90;63.13;96008.56;5078210;28;20584;-67
2024/01/14 06:50:06;;;;;;;35.67;17.43;;;;;;;-2.01;63.08;96006.88;5076142;28;20497;-67
2024/01/14 06:52:31;;;;;;;39.57;20.53;;;;;;;-2.13;63.21;96007.75;5077142;28;20433;-67
2024/01/14 06:54:57;;;;;;;35.60;20.37;;;;;;;-2.01;63.12;96013.72;5073438;28;20432;-67
2024/01/14 06:57:22;;;;;;;37.80;18.93;;;;;;;-2.11;62.81;96000.03;5068904;28;20201;-67
2024/01/14 06:59:48;;;;;;;39.50;18.77;;;;;;;-2.31;64.04;96002.63;5079361;28;20904;-67
2024/01/14 07:02:13;;;;;;;34.27;18.93;;;;;;;-2.35;64.83;96004.31;5077009;28;21043;-66
2024/01/14 07:04:39;;;;;;;36.63;20.13;;;;;;;-2.36;64.61;96007.75;5079856;28;20435;-68
2024/01/14 07:07:04;;;;;;;37.20;18.33;;;;;;;-2.37;64.22;96008.59;5083345;28;20678;-67
2024/01/14 07:09:30;;;;;;;43.50;18.97;;;;;;;-2.44;64.10;95999.19;5070800;28;20231;-66
2024/01/14 07:11:56;;;;;;;41.83;20.70;;;;;;;-2.27;64.40;95988.88;5076675;28;20200;-66
2024/01/14 07:14:24;;;;;;;36.43;17.73;;;;;;;-2.28;64.03;95992.34;5084398;28;20176;-66
2024/01/14 07:16:49;;;;;;;33.27;18.93;;;;;;;-2.37;63.51;95985.47;5082921;28;20194;-67
2024/01/14 07:19:15;;;;;;;35.23;18.13;;;;;;;-2.11;63.30;95976.88;5088131;28;20481;-69
2024/01/14 07:21:40;;;;;;;37.83;20.17;;;;;;;-2.23;63.88;95975.19;5087125;28;20166;-68
2024/01/14 07:24:06;;;;;;;31.43;18.53;;;;;;;-2.40;64.00;95972.63;5085778;28;20698;-66
2024/01/14 07:26:31;;;;;;;31.20;19.00;;;;;;;-2.17;63.73;95975.19;5086541;28;20218;-66
2024/01/14 07:28:56;;;;;;;33.53;18.20;;;;;;;-2.02;63.16;95976.03;5086499;28;20277;-66
2024/01/14 07:31:30;;;;;;;34.20;18.97;;;;;;;-2.02;62.93;95971.75;5086005;28;20170;-66
2024/01/14 07:33:56;;;;;;;35.73;19.93;;;;;;;-2.14;62.79;95962.34;5085572;28;20185;-66
2024/01/14 07:36:21;;;;;;;35.37;18.30;;;;;;;-1.72;62.29;95960.53;5085306;28;20995;-65
2024/01/14 07:38:47;;;;;;;36.77;20.43;;;;;;;-1.30;60.66;95962.91;5085735;28;20447;-66
2024/01/14 07:41:13;;;;;;;35.00;18.30;;;;;;;-0.77;58.27;95956.63;5085639;28;20994;-65
2024/01/14 07:43:40;;;;;;;38.73;18.57;;;;;;;-0.29;57.06;95951.09;5094511;28;20236;-67
2024/01/14 07:46:08;;;;;;;33.30;20.13;;;;;;;0.10;56.37;95946.44;5096172;28;21197;-66
2024/01/14 07:48:35;;;;;;;30.87;19.37;;;;;;;0.58;54.51;95939.00;5085807;28;20419;-66
2024/01/14 07:51:02;;;;;;;36.80;19.07;;;;;;;1.07;53.31;95935.75;5075584;28;20585;-66
2024/01/14 07:53:28;;;;;;;40.23;22.20;;;;;;;1.12;52.55;95940.88;5075945;28;20451;-67
2024/01/14 07:55:53;;;;;;;35.67;20.40;;;;;;;1.16;52.21;95948.56;5081398;28;20435;-67
2024/01/14 07:58:19;;;;;;;36.60;20.83;;;;;;;1.27;51.72;95938.88;5087647;28;20262;-67
2024/01/14 08:00:45;;;;;;;37.40;20.73;;;;;;;0.96;52.75;95941.06;5081860;28;20170;-67
2024/01/14 08:03:10;;;;;;;43.20;24.20;;;;;;;1.46;51.37;95936.91;5079844;28;20177;-67
2024/01/14 08:05:40;;;;;;;36.23;21.47;;;;;;;2.01;49.74;95931.66;5079972;28;20198;-66
2024/01/14 08:08:05;;;;;;;32.27;19.57;;;;;;;1.95;49.10;95926.59;5083285;28;20197;-67
2024/01/14 08:10:32;;;;;;;31.80;20.00;;;;;;;2.13;49.03;95923.69;5075101;28;20439;-66
2024/01/14 08:12:58;;;;;;;33.77;19.40;;;;;;;2.33;48.09;95924.16;5081989;28;20684;-65
2024/01/14 08:15:23;;;;;;;36.10;19.50;;;;;;;2.61;47.20;95920.16;5085245;28;20437;-66
2024/01/14 08:17:49;;;;;;;32.93;21.87;;;;;;;2.70;47.23;95930.34;5082943;28;20299;-66
2024/01/14 08:20:14;;;;;;;31.17;20.67;;;;;;;2.63;47.00;95921.00;5084433;28;20186;-67
2024/01/14 08:22:40;;;;;;;33.97;21.23;;;;;;;2.43;47.06;95917.03;5070542;28;20178;-67
2024/01/14 08:25:05;;;;;;;35.37;22.10;;;;;;;1.51;48.88;95925.63;5073634;28;20189;-65
2024/01/14 08:27:31;;;;;;;31.67;18.60;;;;;;;0.88;50.65;95924.84;5077581;28;20173;-66
2024/01/14 08:29:57;;;;;;;31.87;19.03;;;;;;;0.75;51.60;95924.13;5075167;28;20189;-66
2024/01/14 08:32:22;;;;;;;34.80;21.47;;;;;;;0.46;52.18;95926.25;5086851;28;20922;-66
2024/01/14 08:34:48;;;;;;;34.63;19.93;;;;;;;1.19;50.93;95929.56;5081233;28;20264;-66
2024/01/14 08:37:13;;;;;;;35.90;19.67;;;;;;;1.05;51.52;95927.19;5071777;28;20592;-66
2024/01/14 08:39:39;;;;;;;32.73;19.23;;;;;;;0.71;51.73;95924.19;5071882;28;20292;-66
2024/01/14 08:42:04;;;;;;;35.20;20.03;;;;;;;0.48;52.93;95935.66;5079216;28;20961;-66
2024/01/14 08:44:29;;;;;;;35.07;20.57;;;;;;;0.20;53.38;95937.72;5087533;28;20186;-66
2024/01/14 08:46:55;;;;;;;33.80;21.10;;;;;;;0.08;53.45;95943.00;5081669;28;20244;-67
2024/01/14 08:49:21;;;;;;;36.17;19.50;;;;;;;-0.09;54.42;95935.44;5081698;28;20246;-66
2024/01/14 08:51:46;;;;;;;35.60;20.20;;;;;;;-0.19;55.13;95931.22;5077131;28;20182;-66
2024/01/14 08:54:12;;;;;;;37.33;19.67;;;;;;;-0.31;55.93;95932.19;5075814;28;20458;-64
2024/01/14 08:56:37;;;;;;;30.73;18.10;;;;;;;-0.42;56.76;95929.72;5077302;28;20986;-65
2024/01/14 08:59:03;;;;;;;33.97;19.33;;;;;;;-0.50;57.24;95929.75;5075248;28;20213;-64
2024/01/14 09:01:29;;;;;;;36.73;19.50;;;;;;;-0.65;58.06;95924.75;5076287;28;20173;-64
2024/01/14 09:03:54;;;;;;;40.33;18.70;;;;;;;-0.70;58.70;95923.94;5076770;28;20521;-64
2024/01/14 09:06:20;;;;;;;36.53;17.70;;;;;;;-0.66;58.53;95925.63;5077527;28;20177;-64
2024/01/14 09:08:45;;;;;;;35.53;18.40;;;;;;;-0.65;59.06;95914.44;5083450;28;20197;-66
2024/01/14 09:11:11;;;;;;;34.07;18.83;;;;;;;-0.72;58.83;95923.09;5078027;28;20185;-64
2024/01/14 09:13:36;;;;;;;37.83;18.60;;;;;;;-0.56;58.61;95914.38;5077486;28;20231;-64
2024/01/14 09:16:02;;;;;;;31.87;20.23;;;;;;;-0.78;59.17;95921.44;5077657;28;20288;-65
2024/01/14 09:18:27;;;;;;;32.57;18.10;;;;;;;-0.80;60.02;95909.38;5078800;28;20221;-65
2024/01/14 09:20:53;;;;;;;33.00;20.00;;;;;;;-0.74;59.97;95914.50;5080993;28;20315;-63
2024/01/14 09:23:19;;;;;;;40.77;19.97;;;;;;;-0.76;60.21;95917.09;5076251;28;20190;-65
2024/01/14 09:25:45;;;;;;;31.90;18.33;;;;;;;-0.67;60.02;95917.03;5073114;28;20233;-66
2024/01/14 09:28:11;;;;;;;32.33;18.40;;;;;;;-0.77;60.08;95907.66;5081902;28;20682;-65
2024/01/14 09:30:36;;;;;;;34.50;15.93;;;;;;;-0.79;60.25;95913.69;5077062;28;20441;-64
2024/01/14 09:33:02;;;;;;;33.57;17.40;;;;;;;-0.68;60.40;95899.00;5082728;28;20185;-63
2024/01/14 09:35:27;;;;;;;43.07;18.70;;;;;;;-0.70;60.85;95911.06;5076819;28;20773;-63
2024/01/14 09:37:52;;;;;;;40.63;18.03;;;;;;;-0.55;60.32;95907.50;5087701;28;20273;-66
2024/01/14 09:40:18;;;;;;;43.23;20.30;;;;;;;-0.49;60.07;95905.72;5080470;28;20196;-67
2024/01/14 09:42:47;;;;;;;35.63;18.03;;;;;;;-0.48;61.03;95909.13;5081034;28;20200;-67
2024/01/14 09:45:13;;;;;;;34.33;19.83;;;;;;;-0.41;60.44;95905.63;5082523;28;20209;-65
2024/01/14 09:47:41;;;;;;;35.83;17.97;;;;;;;-0.36;59.85;95909.03;5072154;28;20440;-64
2024/01/14 09:50:07;;;;;;;34.60;18.87;;;;;;;-0.35;60.22;95899.59;5067698;28;20976;-68
2024/01/14 09:52:34;;;;;;;35.17;18.57;;;;;;;-0.33;60.63;95892.66;5077646;28;20472;-67
2024/01/14 09:55:00;;;;;;;42.50;20.40;;;;;;;-0.39;59.97;95890.16;5079545;28;20959;-64
2024/01/14 09:57:28;;;;;;;33.80;17.20;;;;;;;-0.46;60.71;95886.78;5074249;28;20503;-64
2024/01/14 09:59:55;;;;;;;42.03;20.40;;;;;;;-0.40;60.75;95879.00;5069675;28;21156;-66
2024/01/14 10:02:22;;;;;;;50.83;20.93;;;;;;;-0.34;61.04;95868.63;5087277;28;20431;-66
2024/01/14 10:04:48;;;;;;;67.20;20.60;;;;;;;-0.47;60.99;95872.22;5081042;28;20412;-66
2024/01/14 10:07:14;;;;;;;46.17;18.00;;;;;;;-0.28;60.91;95875.47;5076272;28;20420;-67
2024/01/14 10:09:41;;;;;;;39.60;17.30;;;;;;;-0.32;60.64;95861.72;5074533;28;20464;-65
2024/01/14 10:12:10;;;;;;;35.63;16.20;;;;;;;-0.33;60.21;95861.72;5078966;28;20435;-66
2024/01/14 10:14:37;;;;;;;34.53;17.90;;;;;;;-0.07;60.35;95853.72;5083441;28;20440;-67
2024/01/14 10:17:02;;;;;;;26.30;15.60;;;;;;;-0.01;59.81;95848.50;5082919;28;20474;-65
2024/01/14 10:19:29;;;;;;;40.73;19.17;;;;;;;-0.26;59.82;95848.78;5072859;28;20454;-65
2024/01/14 10:21:55;;;;;;;27.73;15.03;;;;;;;-0.24;59.85;95849.63;5075599;28;20560;-65
2024/01/14 10:24:22;;;;;;;31.53;16.13;;;;;;;-0.30;60.02;95836.78;5073338;28;20439;-63
2024/01/14 10:26:54;;;;;;;23.80;14.33;;;;;;;-0.36;60.00;95829.09;5065992;28;20429;-65
2024/01/14 10:29:20;;;;;;;29.37;16.03;;;;;;;-0.30;60.94;95828.22;5074543;28;20462;-67
2024/01/14 10:31:46;;;;;;;29.60;17.27;;;;;;;-0.40;60.23;95818.84;5081132;28;20482;-66
2024/01/14 10:34:12;;;;;;;31.20;18.10;;;;;;;-0.24;60.12;95813.53;5078823;28;20892;-64
2024/01/14 10:36:38;;;;;;;32.77;16.80;;;;;;;0.15;59.90;95806.16;5084216;28;20506;-65
2024/01/14 10:39:04;;;;;;;34.03;19.83;;;;;;;-0.08;59.80;95800.44;5085673;28;20278;-64
2024/01/14 10:41:29;;;;;;;33.30;17.53;;;;;;;-0.39;60.73;95794.78;5091547;28;20432;-66
2024/01/14 10:43:55;;;;;;;33.27;17.43;;;;;;;0.04;59.45;95789.13;5103959;28;20440;-67
2024/01/14 10:46:22;;;;;;;37.20;19.10;;;;;;;-0.01;60.05;95781.44;5101331;28;20385;-66
2024/01/14 10:49:05;;;;;;;41.30;18.83;;;;;;;0.23;59.73;95776.84;5083740;28;20284;-66
2024/01/14 10:51:31;;;;;;;38.50;18.90;;;;;;;0.20;59.01;95772.56;5082611;28;20454;-65
2024/01/14 10:54:30;;;;;;;45.83;19.80;;;;;;;0.25;59.51;95759.59;5070112;28;20791;-66
2024/01/14 10:57:34;;;;;;;46.50;19.57;;;;;;;0.20;59.11;95760.50;5076427;28;20468;-65
2024/01/14 11:00:08;;;;;;;31.40;16.47;;;;;;;0.29;59.41;95761.28;5060433;28;20750;-65
2024/01/14 11:02:38;;;;;;;32.90;17.67;;;;;;;0.44;58.87;95749.88;5055712;28;20443;-67
2024/01/14 11:05:05;;;;;;;34.70;18.60;;;;;;;0.38;59.41;95748.25;5059123;28;20979;-65
2024/01/14 11:07:35;;;;;;;36.67;19.20;;;;;;;0.27;59.72;95747.53;5061042;28;20428;-64
2024/01/14 11:10:02;;;;;;;32.07;17.13;;;;;;;0.17;60.47;95734.78;5060178;28;20502;-66
2024/01/14 11:12:44;;;;;;;38.00;18.50;;;;;;;0.28;59.93;95733.75;5060880;28;20516;-67
2024/01/14 11:15:19;;;;;;;36.77;19.10;;;;;;;0.30;60.47;95735.44;5061673;28;21264;-65